Time;durP1;ratioP1;P1;durP2;ratioP2;P2;SDS_P1;SDS_P2;PMS_P1;PMS_P2;Temp;Humidity;BMP_temperature;BMP_pressure;BME280_temperature;BME280_humidity;BME280_pressure;Samples;Min_cycle;Max_cycle;Signal;HPM_P1;HPM_P2
2022/07/04 00:01:13;;;;;;;;;;;;;;;;;;5060278;28;19908;-78
2022/07/04 00:03:59;;;;;;;;;;;;;;;;;;5054195;28;19931;-79
2022/07/04 00:06:46;;;;;;;;;;;;;;;;;;5067684;28;20364;-79
2022/07/04 00:09:32;;;;;;;;;;;;;;;;;;5065759;28;19916;-79
2022/07/04 00:12:18;;;;;;;;;;;;;;;;;;5054623;28;20288;-78
2022/07/04 00:15:05;;;;;;;;;;;;;;;;;;5071780;28;19919;-78
2022/07/04 00:17:51;;;;;;;;;;;;;;;;;;5078333;28;19944;-78
2022/07/04 00:20:38;;;;;;;;;;;;;;;;;;5069523;28;19916;-78
2022/07/04 00:23:24;;;;;;;;;;;;;;;;;;5063552;28;19909;-78
2022/07/04 00:26:11;;;;;;;;;;;;;;;;;;5065094;28;20002;-78
2022/07/04 00:28:57;;;;;;;;;;;;;;;;;;5062825;28;19909;-78
2022/07/04 00:31:44;;;;;;;;;;;;;;;;;;5064580;28;19909;-78
2022/07/04 00:34:30;;;;;;;;;;;;;;;;;;5068518;28;19916;-76
2022/07/04 00:37:17;;;;;;;;;;;;;;;;;;5064382;28;19925;-76
2022/07/04 00:40:03;;;;;;;;;;;;;;;;;;5068107;28;19920;-76
2022/07/04 00:42:50;;;;;;;;;;;;;;;;;;5066462;28;19909;-77
2022/07/04 00:45:36;;;;;;;;;;;;;;;;;;5060065;28;19923;-77
2022/07/04 00:48:23;;;;;;;;;;;;;;;;;;5058197;28;20382;-77
2022/07/04 00:51:09;;;;;;;;;;;;;;;;;;5060978;28;20394;-77
2022/07/04 00:53:55;;;;;;;;;;;;;;;;;;5060706;28;19936;-77
2022/07/04 00:56:42;;;;;;;;;;;;;;;;;;5053562;28;19925;-77
2022/07/04 00:59:28;;;;;;;;;;;;;;;;;;5064559;28;19926;-77
2022/07/04 01:02:15;;;;;;;;;;;;;;;;;;5052814;28;19931;-77
2022/07/04 01:05:01;;;;;;;;;;;;;;;;;;5055575;28;19916;-78
2022/07/04 01:07:48;;;;;;;;;;;;;;;;;;5058915;28;19929;-78
2022/07/04 01:10:34;;;;;;;;;;;;;;;;;;5058868;28;19913;-78
2022/07/04 01:13:21;;;;;;;;;;;;;;;;;;5063159;28;19908;-77
2022/07/04 01:16:07;;;;;;;;;;;;;;;;;;5067085;28;20396;-78
2022/07/04 01:18:54;;;;;;;;;;;;;;;;;;5067136;28;19920;-77
2022/07/04 01:21:40;;;;;;;;;;;;;;;;;;5065739;28;20359;-79
2022/07/04 01:24:26;;;;;;;;;;;;;;;;;;5062904;28;19916;-78
2022/07/04 01:27:13;;;;;;;;;;;;;;;;;;5066775;28;21065;-77
2022/07/04 01:29:59;;;;;;;;;;;;;;;;;;5063743;28;19908;-77
2022/07/04 01:32:46;;;;;;;;;;;;;;;;;;5051634;28;19916;-77
2022/07/04 01:35:32;;;;;;;;;;;;;;;;;;5054303;28;19919;-77
2022/07/04 01:38:19;;;;;;;;;;;;;;;;;;5070134;28;19920;-77
2022/07/04 01:41:05;;;;;;;;;;;;;;;;;;5041856;28;20360;-77
2022/07/04 01:43:52;;;;;;;;;;;;;;;;;;5066661;28;19919;-78
2022/07/04 01:46:38;;;;;;;;;;;;;;;;;;5066707;28;19908;-78
2022/07/04 01:49:25;;;;;;;;;;;;;;;;;;5055282;28;19909;-78
2022/07/04 01:52:11;;;;;;;;;;;;;;;;;;5061211;28;19920;-79
2022/07/04 01:54:58;;;;;;;;;;;;;;;;;;5070182;28;19986;-77
2022/07/04 01:57:44;;;;;;;;;;;;;;;;;;5066942;28;19920;-78
2022/07/04 02:03:36;;;;;;;;;;;;;;;;;;5053698;28;19912;-77
2022/07/04 02:06:22;;;;;;;;;;;;;;;;;;5067963;28;19938;-76
2022/07/04 02:09:14;;;;;;;;;;;;;;;;;;5056293;28;19920;-77
2022/07/04 02:15:06;;;;;;;;;;;;;;;;;;5063946;28;19917;-78
2022/07/04 02:17:53;;;;;;;;;;;;;;;;;;5054357;28;19921;-78
2022/07/04 02:20:39;;;;;;;;;;;;;;;;;;5054904;28;19909;-77
2022/07/04 02:23:25;;;;;;;;;;;;;;;;;;5067957;28;19908;-77
2022/07/04 02:26:12;;;;;;;;;;;;;;;;;;5085799;28;19912;-77
2022/07/04 02:28:58;;;;;;;;;;;;;;;;;;5072783;28;20395;-78
2022/07/04 02:31:45;;;;;;;;;;;;;;;;;;5065216;28;19915;-78
2022/07/04 02:34:31;;;;;;;;;;;;;;;;;;5068027;28;20422;-78
2022/07/04 02:37:18;;;;;;;;;;;;;;;;;;5066438;28;19921;-79
2022/07/04 02:40:04;;;;;;;;;;;;;;;;;;5066695;28;19927;-78
2022/07/04 02:42:51;;;;;;;;;;;;;;;;;;5065175;28;19916;-77
2022/07/04 02:45:37;;;;;;;;;;;;;;;;;;5074850;28;19912;-77
2022/07/04 02:48:24;;;;;;;;;;;;;;;;;;5061012;28;19931;-76
2022/07/04 02:51:10;;;;;;;;;;;;;;;;;;5066246;28;19916;-77
2022/07/04 02:53:56;;;;;;;;;;;;;;;;;;5069351;28;19913;-77
2022/07/04 02:56:43;;;;;;;;;;;;;;;;;;5060260;28;19916;-78
2022/07/04 02:59:29;;;;;;;;;;;;;;;;;;5046148;28;19913;-78
2022/07/04 03:02:16;;;;;;;;;;;;;;;;;;5048011;28;19943;-78
2022/07/04 03:05:02;;;;;;;;;;;;;;;;;;5054754;28;19909;-78
2022/07/04 03:07:49;;;;;;;;;;;;;;;;;;5062171;28;19920;-78
2022/07/04 03:10:35;;;;;;;;;;;;;;;;;;5065622;28;19909;-77
2022/07/04 03:13:22;;;;;;;;;;;;;;;;;;5069286;28;19916;-77
2022/07/04 03:16:08;;;;;;;;;;;;;;;;;;5061656;28;19909;-77
2022/07/04 03:18:55;;;;;;;;;;;;;;;;;;5061255;28;20361;-79
2022/07/04 03:21:41;;;;;;;;;;;;;;;;;;5071462;28;19915;-79
2022/07/04 03:24:28;;;;;;;;;;;;;;;;;;5050639;28;19913;-78
2022/07/04 03:27:14;;;;;;;;;;;;;;;;;;5070797;28;19908;-78
2022/07/04 03:30:01;;;;;;;;;;;;;;;;;;5064267;28;19915;-79
2022/07/04 03:32:47;;;;;;;;;;;;;;;;;;5070907;28;19923;-79
2022/07/04 03:35:34;;;;;;;;;;;;;;;;;;5063728;28;19920;-80
2022/07/04 03:38:20;;;;;;;;;;;;;;;;;;5070965;28;19938;-77
2022/07/04 03:41:07;;;;;;;;;;;;;;;;;;5076873;28;19912;-77
2022/07/04 03:43:53;;;;;;;;;;;;;;;;;;5069091;28;19912;-78
2022/07/04 03:46:39;;;;;;;;;;;;;;;;;;5066434;28;19909;-77
2022/07/04 03:49:26;;;;;;;;;;;;;;;;;;5062006;28;19916;-77
2022/07/04 03:52:12;;;;;;;;;;;;;;;;;;5064971;28;19908;-77
2022/07/04 03:54:59;;;;;;;;;;;;;;;;;;5059290;28;19920;-77
2022/07/04 03:57:45;;;;;;;;;;;;;;;;;;5071148;28;20399;-77
2022/07/04 04:00:32;;;;;;;;;;;;;;;;;;5056767;28;19920;-77
2022/07/04 04:06:23;;;;;;;;;;;;;;;;;;5052925;28;19916;-78
2022/07/04 04:09:16;;;;;;;;;;;;;;;;;;5058959;28;20368;-79
2022/07/04 04:12:02;;;;;;;;;;;;;;;;;;5059998;28;19913;-79
2022/07/04 04:14:49;;;;;;;;;;;;;;;;;;5067235;28;19931;-78
2022/07/04 04:17:35;;;;;;;;;;;;;;;;;;5071466;28;19932;-78
2022/07/04 04:20:21;;;;;;;;;;;;;;;;;;5067331;28;20368;-78
2022/07/04 04:23:08;;;;;;;;;;;;;;;;;;5068063;28;19912;-78
2022/07/04 04:25:54;;;;;;;;;;;;;;;;;;5063216;28;19915;-78
2022/07/04 04:28:41;;;;;;;;;;;;;;;;;;5070278;28;19915;-78
2022/07/04 04:31:27;;;;;;;;;;;;;;;;;;5062672;28;19920;-78
2022/07/04 04:34:14;;;;;;;;;;;;;;;;;;5061567;28;19920;-78
2022/07/04 04:37:00;;;;;;;;;;;;;;;;;;5068842;28;19927;-78
2022/07/04 04:39:47;;;;;;;;;;;;;;;;;;5067700;28;19909;-78
2022/07/04 04:42:33;;;;;;;;;;;;;;;;;;5068264;28;19909;-78
2022/07/04 04:45:20;;;;;;;;;;;;;;;;;;5062580;28;19916;-78
2022/07/04 04:48:06;;;;;;;;;;;;;;;;;;5049963;28;19915;-78
2022/07/04 04:50:53;;;;;;;;;;;;;;;;;;5068638;28;19935;-79
2022/07/04 04:53:39;;;;;;;;;;;;;;;;;;5061913;28;19916;-78
2022/07/04 04:56:25;;;;;;;;;;;;;;;;;;5060408;28;20280;-78
2022/07/04 04:59:12;;;;;;;;;;;;;;;;;;5069173;28;19920;-78
2022/07/04 05:01:58;;;;;;;;;;;;;;;;;;5058431;28;19913;-78
2022/07/04 05:04:45;;;;;;;;;;;;;;;;;;5047721;28;19909;-77
2022/07/04 05:07:31;;;;;;;;;;;;;;;;;;5053157;28;20376;-77
2022/07/04 05:10:18;;;;;;;;;;;;;;;;;;5066749;28;19917;-78
2022/07/04 05:13:04;;;;;;;;;;;;;;;;;;5071729;28;20382;-77
2022/07/04 05:15:51;;;;;;;;;;;;;;;;;;5067566;28;19912;-78
2022/07/04 05:18:37;;;;;;;;;;;;;;;;;;5060621;28;20269;-77
2022/07/04 05:21:26;;;;;;;;;;;;;;;;;;5046160;28;19909;-77
2022/07/04 05:24:12;;;;;;;;;;;;;;;;;;5056168;28;20447;-78
2022/07/04 05:26:59;;;;;;;;;;;;;;;;;;5046596;28;19912;-79
2022/07/04 05:29:45;;;;;;;;;;;;;;;;;;5072696;28;19912;-78
2022/07/04 05:32:31;;;;;;;;;;;;;;;;;;5052741;28;19936;-78
2022/07/04 05:35:18;;;;;;;;;;;;;;;;;;5052613;28;19920;-78
2022/07/04 05:38:04;;;;;;;;;;;;;;;;;;5040263;28;19916;-78
2022/07/04 05:40:51;;;;;;;;;;;;;;;;;;5055726;28;20406;-78
2022/07/04 05:43:37;;;;;;;;;;;;;;;;;;5062932;28;19908;-80
2022/07/04 05:46:24;;;;;;;;;;;;;;;;;;5057468;28;19912;-80
2022/07/04 05:49:10;;;;;;;;;;;;;;;;;;5060563;28;19915;-79
2022/07/04 05:51:57;;;;;;;;;;;;;;;;;;5048441;28;19913;-81
2022/07/04 05:54:43;;;;;;;;;;;;;;;;;;5056010;28;19909;-79
2022/07/04 05:57:30;;;;;;;;;;;;;;;;;;5052437;28;19916;-81
2022/07/04 06:00:16;;;;;;;;;;;;;;;;;;5066377;28;19923;-81
2022/07/04 06:03:02;;;;;;;;;;;;;;;;;;5062418;28;19916;-81
2022/07/04 06:05:49;;;;;;;;;;;;;;;;;;5067993;28;19909;-81
2022/07/04 06:08:36;;;;;;;;;;;;;;;;;;5063796;28;20598;-81
2022/07/04 06:11:24;;;;;;;;;;;;;;;;;;5042070;28;20303;-80
2022/07/04 06:14:11;;;;;;;;;;;;;;;;;;5064864;28;19914;-80
2022/07/04 06:16:57;;;;;;;;;;;;;;;;;;5062714;28;19924;-80
2022/07/04 06:19:44;;;;;;;;;;;;;;;;;;5058967;28;19920;-81
2022/07/04 06:22:30;;;;;;;;;;;;;;;;;;5058348;28;20293;-80
2022/07/04 06:25:17;;;;;;;;;;;;;;;;;;5061896;28;19916;-79
2022/07/04 06:28:03;;;;;;;;;;;;;;;;;;5054234;28;20391;-79
2022/07/04 06:30:50;;;;;;;;;;;;;;;;;;5054615;28;19909;-78
2022/07/04 06:35:44;;;;;;;;;;;;;;;;;;5053355;28;20026;-79
2022/07/04 06:36:42;;;;;;;;;;;;;;;;;;5056552;28;19909;-79
2022/07/04 06:39:29;;;;;;;;;;;;;;;;;;5061204;28;19917;-78
2022/07/04 06:42:15;;;;;;;;;;;;;;;;;;5055667;28;19909;-79
2022/07/04 06:45:02;;;;;;;;;;;;;;;;;;5056063;28;19939;-79
2022/07/04 06:47:48;;;;;;;;;;;;;;;;;;5059716;28;20226;-79
2022/07/04 06:50:35;;;;;;;;;;;;;;;;;;5058632;28;19924;-78
2022/07/04 06:53:21;;;;;;;;;;;;;;;;;;5057748;28;19913;-79
2022/07/04 06:56:08;;;;;;;;;;;;;;;;;;5043687;28;19915;-78
2022/07/04 06:58:54;;;;;;;;;;;;;;;;;;5060033;28;19921;-77
2022/07/04 07:01:41;;;;;;;;;;;;;;;;;;5060188;28;20363;-78
2022/07/04 07:04:28;;;;;;;;;;;;;;;;;;5058748;28;19931;-78
2022/07/04 07:07:14;;;;;;;;;;;;;;;;;;5056613;28;19919;-77
2022/07/04 07:10:05;;;;;;;;;;;;;;;;;;5054341;28;19920;-78
2022/07/04 07:12:52;;;;;;;;;;;;;;;;;;5055451;28;19919;-78
2022/07/04 07:15:39;;;;;;;;;;;;;;;;;;5036695;28;19917;-78
2022/07/04 07:18:25;;;;;;;;;;;;;;;;;;5053634;28;19925;-78
2022/07/04 07:21:11;;;;;;;;;;;;;;;;;;5051059;28;19916;-78
2022/07/04 07:24:00;;;;;;;;;;;;;;;;;;5055988;28;19923;-77
2022/07/04 07:26:46;;;;;;;;;;;;;;;;;;5053134;28;19917;-76
2022/07/04 07:29:33;;;;;;;;;;;;;;;;;;5051072;28;19909;-76
2022/07/04 07:32:19;;;;;;;;;;;;;;;;;;5053964;28;20328;-77
2022/07/04 07:35:06;;;;;;;;;;;;;;;;;;5056159;28;19916;-77
2022/07/04 07:37:52;;;;;;;;;;;;;;;;;;5063103;28;19912;-77
2022/07/04 07:40:38;;;;;;;;;;;;;;;;;;5056887;28;20423;-76
2022/07/04 07:43:25;;;;;;;;;;;;;;;;;;5057418;28;19909;-76
2022/07/04 07:46:12;;;;;;;;;;;;;;;;;;5059163;28;19916;-75
2022/07/04 07:48:58;;;;;;;;;;;;;;;;;;5053732;28;19965;-76
2022/07/04 07:51:45;;;;;;;;;;;;;;;;;;5058273;28;19912;-77
2022/07/04 07:54:31;;;;;;;;;;;;;;;;;;5056759;28;20475;-76
2022/07/04 07:57:18;;;;;;;;;;;;;;;;;;5057989;28;19928;-76
2022/07/04 08:00:04;;;;;;;;;;;;;;;;;;5064981;28;20372;-76
2022/07/04 08:05:55;;;;;;;;;;;;;;;;;;5057994;28;20342;-76
2022/07/04 08:08:42;;;;;;;;;;;;;;;;;;5063757;28;19930;-76
2022/07/04 08:11:28;;;;;;;;;;;;;;;;;;5062969;28;19922;-76
2022/07/04 08:14:15;;;;;;;;;;;;;;;;;;5045992;28;19908;-75
2022/07/04 08:17:01;;;;;;;;;;;;;;;;;;5057213;28;20281;-76
2022/07/04 08:19:48;;;;;;;;;;;;;;;;;;5059066;28;19927;-76
2022/07/04 08:22:34;;;;;;;;;;;;;;;;;;5052707;28;19916;-74
2022/07/04 08:25:21;;;;;;;;;;;;;;;;;;5051115;28;19924;-74
2022/07/04 08:28:07;;;;;;;;;;;;;;;;;;5056648;28;19913;-74
2022/07/04 08:30:54;;;;;;;;;;;;;;;;;;5049359;28;20388;-75
2022/07/04 08:33:40;;;;;;;;;;;;;;;;;;5055690;28;19922;-74
2022/07/04 08:36:27;;;;;;;;;;;;;;;;;;5062540;28;19919;-75
2022/07/04 08:39:13;;;;;;;;;;;;;;;;;;5055584;28;19920;-75
2022/07/04 08:42:00;;;;;;;;;;;;;;;;;;5062862;28;20284;-75
2022/07/04 08:44:46;;;;;;;;;;;;;;;;;;5061948;28;19947;-75
2022/07/04 08:47:33;;;;;;;;;;;;;;;;;;5058542;28;19909;-75
2022/07/04 08:50:20;;;;;;;;;;;;;;;;;;5063714;28;20358;-75
2022/07/04 08:53:06;;;;;;;;;;;;;;;;;;5060756;28;19956;-75
2022/07/04 08:58:58;;;;;;;;;;;;;;;;;;5058669;28;19917;-75
2022/07/04 09:01:44;;;;;;;;;;;;;;;;;;5055864;28;19917;-75
2022/07/04 09:04:31;;;;;;;;;;;;;;;;;;5056158;28;19931;-74
2022/07/04 09:07:18;;;;;;;;;;;;;;;;;;5058785;28;20416;-75
2022/07/04 09:10:04;;;;;;;;;;;;;;;;;;5052493;28;19915;-76
2022/07/04 09:12:51;;;;;;;;;;;;;;;;;;5055083;28;19919;-76
2022/07/04 09:15:37;;;;;;;;;;;;;;;;;;5061127;28;19917;-77
2022/07/04 09:18:24;;;;;;;;;;;;;;;;;;5054555;28;19921;-75
2022/07/04 09:21:10;;;;;;;;;;;;;;;;;;5053659;28;19920;-75
2022/07/04 09:23:57;;;;;;;;;;;;;;;;;;5062243;28;19916;-75
2022/07/04 09:26:43;;;;;;;;;;;;;;;;;;5053617;28;19913;-75
2022/07/04 09:29:30;;;;;;;;;;;;;;;;;;5040957;28;19913;-75
2022/07/04 09:32:16;;;;;;;;;;;;;;;;;;5057400;28;19914;-75
2022/07/04 09:35:02;;;;;;;;;;;;;;;;;;5069275;28;19920;-74
2022/07/04 09:37:49;;;;;;;;;;;;;;;;;;5070891;28;20292;-74
2022/07/04 09:43:41;;;;;;;;;;;;;;;;;;5053255;28;19920;-74
2022/07/04 09:46:27;;;;;;;;;;;;;;;;;;5050914;28;19912;-74
2022/07/04 09:49:14;;;;;;;;;;;;;;;;;;5052842;28;19929;-73
2022/07/04 09:52:00;;;;;;;;;;;;;;;;;;5052298;28;19908;-73
2022/07/04 09:54:47;;;;;;;;;;;;;;;;;;5054150;28;19920;-74
2022/07/04 09:57:33;;;;;;;;;;;;;;;;;;5057211;28;19950;-75
2022/07/04 10:00:20;;;;;;;;;;;;;;;;;;5041883;28;20418;-76
2022/07/04 10:03:06;;;;;;;;;;;;;;;;;;5051292;28;19912;-75
2022/07/04 10:05:53;;;;;;;;;;;;;;;;;;5065515;28;19908;-75
2022/07/04 10:08:39;;;;;;;;;;;;;;;;;;5065995;28;19924;-76
2022/07/04 10:11:26;;;;;;;;;;;;;;;;;;5060798;28;19908;-76
2022/07/04 10:14:12;;;;;;;;;;;;;;;;;;5057393;28;19919;-76
2022/07/04 10:16:59;;;;;;;;;;;;;;;;;;5064336;28;19926;-75
2022/07/04 10:19:45;;;;;;;;;;;;;;;;;;5058793;28;19912;-75
2022/07/04 10:22:32;;;;;;;;;;;;;;;;;;5061433;28;19912;-75
2022/07/04 10:25:18;;;;;;;;;;;;;;;;;;5066055;28;19908;-75
2022/07/04 10:28:05;;;;;;;;;;;;;;;;;;5056142;28;19909;-74
2022/07/04 10:30:51;;;;;;;;;;;;;;;;;;5063933;28;20394;-75
2022/07/04 10:33:38;;;;;;;;;;;;;;;;;;5065040;28;20482;-75
2022/07/04 10:36:28;;;;;;;;;;;;;;;;;;5059527;28;19916;-75
2022/07/04 10:39:15;;;;;;;;;;;;;;;;;;5049584;28;20465;-75
2022/07/04 10:42:02;;;;;;;;;;;;;;;;;;5050569;28;19909;-75
2022/07/04 10:44:49;;;;;;;;;;;;;;;;;;5072313;28;19990;-74
2022/07/04 10:47:35;;;;;;;;;;;;;;;;;;5064125;28;20343;-74
2022/07/04 10:50:22;;;;;;;;;;;;;;;;;;5063990;28;19922;-75
2022/07/04 10:53:08;;;;;;;;;;;;;;;;;;5056962;28;20379;-75
2022/07/04 10:55:55;;;;;;;;;;;;;;;;;;5061849;28;19908;-76
2022/07/04 10:58:42;;;;;;;;;;;;;;;;;;5067445;28;20680;-74
2022/07/04 11:01:28;;;;;;;;;;;;;;;;;;5036727;28;19932;-74
2022/07/04 11:04:15;;;;;;;;;;;;;;;;;;5052467;28;19913;-75
2022/07/04 11:07:01;;;;;;;;;;;;;;;;;;5060811;28;19913;-74
2022/07/04 11:09:48;;;;;;;;;;;;;;;;;;5060326;28;19930;-75
2022/07/04 11:12:34;;;;;;;;;;;;;;;;;;5062802;28;19916;-74
2022/07/04 11:15:20;;;;;;;;;;;;;;;;;;5049599;28;19909;-74
2022/07/04 11:18:08;;;;;;;;;;;;;;;;;;5067313;28;19921;-75
2022/07/04 11:20:54;;;;;;;;;;;;;;;;;;5067062;28;19912;-75
2022/07/04 11:23:41;;;;;;;;;;;;;;;;;;5074660;28;19999;-74
2022/07/04 11:26:28;;;;;;;;;;;;;;;;;;5054483;28;19912;-74
2022/07/04 11:29:14;;;;;;;;;;;;;;;;;;5056950;28;19908;-74
2022/07/04 11:32:05;;;;;;;;;;;;;;;;;;5060229;28;19909;-75
2022/07/04 11:34:51;;;;;;;;;;;;;;;;;;5065033;28;19912;-75
2022/07/04 11:37:37;;;;;;;;;;;;;;;;;;5067215;28;19916;-75
2022/07/04 11:46:42;;;;;;;;;;;;;;;;;;5039456;28;19912;-76
2022/07/04 11:49:28;;;;;;;;;;;;;;;;;;5060684;28;19996;-76
2022/07/04 11:52:15;;;;;;;;;;;;;;;;;;5063283;28;19909;-76
2022/07/04 11:55:01;;;;;;;;;;;;;;;;;;5067259;28;19915;-76
2022/07/04 11:57:48;;;;;;;;;;;;;;;;;;5064052;28;19916;-76
2022/07/04 12:00:34;;;;;;;;;;;;;;;;;;5062185;28;19934;-76
2022/07/04 12:03:21;;;;;;;;;;;;;;;;;;5064224;28;19909;-75
2022/07/04 12:06:07;;;;;;;;;;;;;;;;;;5059929;28;19915;-75
2022/07/04 12:08:54;;;;;;;;;;;;;;;;;;5065463;28;20035;-76
2022/07/04 12:11:40;;;;;;;;;;;;;;;;;;5052396;28;19909;-76
2022/07/04 12:14:27;;;;;;;;;;;;;;;;;;5064588;28;19913;-76
2022/07/04 12:17:14;;;;;;;;;;;;;;;;;;5057563;28;19920;-76
2022/07/04 12:20:00;;;;;;;;;;;;;;;;;;5063456;28;19917;-76
2022/07/04 12:22:47;;;;;;;;;;;;;;;;;;5073062;28;19915;-75
2022/07/04 12:25:43;;;;;;;;;;;;;;;;;;5061691;28;19919;-76
2022/07/04 12:28:29;;;;;;;;;;;;;;;;;;5064272;28;19920;-76
2022/07/04 12:31:16;;;;;;;;;;;;;;;;;;5059679;28;19909;-76
2022/07/04 12:34:03;;;;;;;;;;;;;;;;;;5062656;28;19915;-76
2022/07/04 12:36:49;;;;;;;;;;;;;;;;;;5054780;28;20353;-76
2022/07/04 12:39:37;;;;;;;;;;;;;;;;;;5065734;28;19928;-77
2022/07/04 12:42:23;;;;;;;;;;;;;;;;;;5070636;28;19930;-76
2022/07/04 12:45:10;;;;;;;;;;;;;;;;;;5071864;28;19919;-76
2022/07/04 12:47:56;;;;;;;;;;;;;;;;;;5073613;28;20623;-76
2022/07/04 12:50:43;;;;;;;;;;;;;;;;;;5070505;28;20394;-77
2022/07/04 12:53:30;;;;;;;;;;;;;;;;;;5061060;28;19943;-76
2022/07/04 12:56:16;;;;;;;;;;;;;;;;;;5062602;28;19916;-77
2022/07/04 12:59:02;;;;;;;;;;;;;;;;;;5060016;28;20403;-77
2022/07/04 13:01:49;;;;;;;;;;;;;;;;;;5055473;28;19912;-76
2022/07/04 13:04:35;;;;;;;;;;;;;;;;;;5039933;28;19917;-76
2022/07/04 13:07:22;;;;;;;;;;;;;;;;;;5051324;28;20389;-76
2022/07/04 13:10:08;;;;;;;;;;;;;;;;;;5053326;28;19927;-77
2022/07/04 13:12:55;;;;;;;;;;;;;;;;;;5049225;28;19909;-76
2022/07/04 13:15:41;;;;;;;;;;;;;;;;;;5060264;28;19913;-76
2022/07/04 13:18:28;;;;;;;;;;;;;;;;;;5061265;28;20379;-76
2022/07/04 13:21:14;;;;;;;;;;;;;;;;;;5060376;28;19912;-77
2022/07/04 13:24:01;;;;;;;;;;;;;;;;;;5051127;28;19909;-76
2022/07/04 13:26:47;;;;;;;;;;;;;;;;;;5052678;28;20387;-77
2022/07/04 13:29:34;;;;;;;;;;;;;;;;;;5058155;28;19912;-75
2022/07/04 13:32:20;;;;;;;;;;;;;;;;;;5059073;28;20392;-78
2022/07/04 13:35:07;;;;;;;;;;;;;;;;;;5058540;28;19917;-77
2022/07/04 13:37:53;;;;;;;;;;;;;;;;;;5056752;28;19921;-76
2022/07/04 13:40:40;;;;;;;;;;;;;;;;;;5041145;28;20282;-76
2022/07/04 13:43:29;;;;;;;;;;;;;;;;;;5057567;28;19908;-76
2022/07/04 13:46:15;;;;;;;;;;;;;;;;;;5044260;28;19923;-77
2022/07/04 13:49:02;;;;;;;;;;;;;;;;;;5059409;28;19917;-77
2022/07/04 13:51:48;;;;;;;;;;;;;;;;;;5062305;28;19931;-77
2022/07/04 13:54:35;;;;;;;;;;;;;;;;;;5062456;28;19920;-77
2022/07/04 13:57:21;;;;;;;;;;;;;;;;;;5060815;28;20273;-77
2022/07/04 14:00:08;;;;;;;;;;;;;;;;;;5050930;28;19929;-76
2022/07/04 14:02:54;;;;;;;;;;;;;;;;;;5050156;28;19917;-76
2022/07/04 14:05:41;;;;;;;;;;;;;;;;;;5059517;28;19912;-76
2022/07/04 14:08:27;;;;;;;;;;;;;;;;;;5063482;28;19924;-76
2022/07/04 14:11:14;;;;;;;;;;;;;;;;;;5068113;28;20296;-76
2022/07/04 14:14:00;;;;;;;;;;;;;;;;;;5060541;28;19920;-76
2022/07/04 14:16:47;;;;;;;;;;;;;;;;;;5059061;28;19913;-76
2022/07/04 14:19:34;;;;;;;;;;;;;;;;;;5059895;28;19922;-73
2022/07/04 14:22:20;;;;;;;;;;;;;;;;;;5068156;28;20588;-73
2022/07/04 14:25:07;;;;;;;;;;;;;;;;;;5059184;28;19912;-73
2022/07/04 14:27:53;;;;;;;;;;;;;;;;;;5072631;28;19908;-73
2022/07/04 14:30:40;;;;;;;;;;;;;;;;;;5060167;28;19908;-73
2022/07/04 14:33:26;;;;;;;;;;;;;;;;;;5065897;28;19916;-73
2022/07/04 14:36:12;;;;;;;;;;;;;;;;;;5055570;28;19923;-73
2022/07/04 14:39:01;;;;;;;;;;;;;;;;;;5059460;28;19958;-73
2022/07/04 14:41:47;;;;;;;;;;;;;;;;;;5065596;28;19922;-73
2022/07/04 14:44:36;;;;;;;;;;;;;;;;;;5061562;28;19920;-72
2022/07/04 14:47:22;;;;;;;;;;;;;;;;;;5057695;28;20372;-73
2022/07/04 14:50:08;;;;;;;;;;;;;;;;;;5066509;28;19912;-73
2022/07/04 14:52:55;;;;;;;;;;;;;;;;;;5058086;28;20396;-72
2022/07/04 14:55:41;;;;;;;;;;;;;;;;;;5062659;28;19908;-74
2022/07/04 14:58:28;;;;;;;;;;;;;;;;;;5057800;28;20345;-74
2022/07/04 15:01:14;;;;;;;;;;;;;;;;;;5058395;28;19909;-74
2022/07/04 15:04:01;;;;;;;;;;;;;;;;;;5060251;28;19920;-75
2022/07/04 15:06:47;;;;;;;;;;;;;;;;;;5066649;28;19916;-74
2022/07/04 15:09:34;;;;;;;;;;;;;;;;;;5063351;28;19928;-75
2022/07/04 15:12:21;;;;;;;;;;;;;;;;;;5054048;28;19924;-74
2022/07/04 15:15:07;;;;;;;;;;;;;;;;;;5061555;28;19923;-75
2022/07/04 15:17:54;;;;;;;;;;;;;;;;;;5064612;28;19925;-75
2022/07/04 15:26:52;;;;;;;;;;;;;;;;;;5063169;28;20288;-78
2022/07/04 15:29:39;;;;;;;;;;;;;;;;;;5052131;28;19908;-76
2022/07/04 15:32:25;;;;;;;;;;;;;;;;;;5061067;28;19919;-81
2022/07/04 15:35:11;;;;;;;;;;;;;;;;;;5053600;28;20041;-78
2022/07/04 15:37:58;;;;;;;;;;;;;;;;;;5057191;28;19920;-83
2022/07/04 15:40:44;;;;;;;;;;;;;;;;;;5061180;28;19912;-81
2022/07/04 15:43:31;;;;;;;;;;;;;;;;;;5062599;28;20548;-83
2022/07/04 15:46:18;;;;;;;;;;;;;;;;;;5048925;28;19913;-85
2022/07/04 15:49:04;;;;;;;;;;;;;;;;;;5059853;28;19928;-82
2022/07/04 15:51:51;;;;;;;;;;;;;;;;;;5054977;28;20292;-85
2022/07/04 15:54:37;;;;;;;;;;;;;;;;;;5053624;28;19917;-85
2022/07/04 15:57:24;;;;;;;;;;;;;;;;;;5066084;28;19917;-84
2022/07/04 16:00:10;;;;;;;;;;;;;;;;;;5066340;28;19946;-85
2022/07/04 16:02:57;;;;;;;;;;;;;;;;;;5062993;28;19917;-84
2022/07/04 16:05:43;;;;;;;;;;;;;;;;;;5056131;28;20443;-83
2022/07/04 16:08:30;;;;;;;;;;;;;;;;;;5054950;28;20479;-83
2022/07/04 16:11:16;;;;;;;;;;;;;;;;;;5061151;28;19913;-79
2022/07/04 16:14:03;;;;;;;;;;;;;;;;;;5066490;28;20283;-79
2022/07/04 16:16:49;;;;;;;;;;;;;;;;;;5059011;28;19909;-78
2022/07/04 16:19:36;;;;;;;;;;;;;;;;;;5063978;28;19920;-79
2022/07/04 16:22:22;;;;;;;;;;;;;;;;;;5062391;28;19915;-84
2022/07/04 16:25:09;;;;;;;;;;;;;;;;;;5050383;28;19908;-78
2022/07/04 16:27:55;;;;;;;;;;;;;;;;;;5059627;28;19913;-80
2022/07/04 16:30:42;;;;;;;;;;;;;;;;;;5059189;28;19916;-82
2022/07/04 16:33:28;;;;;;;;;;;;;;;;;;5057481;28;20585;-82
2022/07/04 16:36:15;;;;;;;;;;;;;;;;;;5057612;28;19917;-76
2022/07/04 16:39:01;;;;;;;;;;;;;;;;;;5059765;28;19921;-81
2022/07/04 16:41:48;;;;;;;;;;;;;;;;;;5044537;28;19916;-77
2022/07/04 16:44:34;;;;;;;;;;;;;;;;;;5057856;28;19931;-77
2022/07/04 16:47:22;;;;;;;;;;;;;;;;;;5059798;28;20000;-78
2022/07/04 16:50:08;;;;;;;;;;;;;;;;;;5053043;28;19909;-81
2022/07/04 16:52:55;;;;;;;;;;;;;;;;;;5054604;28;19924;-80
2022/07/04 16:55:41;;;;;;;;;;;;;;;;;;5059706;28;20029;-78
2022/07/04 16:58:28;;;;;;;;;;;;;;;;;;5054768;28;19956;-78
2022/07/04 17:01:15;;;;;;;;;;;;;;;;;;5056314;28;19916;-78
2022/07/04 17:04:01;;;;;;;;;;;;;;;;;;5058949;28;19924;-75
2022/07/04 17:06:47;;;;;;;;;;;;;;;;;;5062328;28;19916;-76
2022/07/04 17:09:34;;;;;;;;;;;;;;;;;;5055040;28;19920;-76
2022/07/04 17:12:20;;;;;;;;;;;;;;;;;;5052314;28;19927;-75
2022/07/04 17:15:07;;;;;;;;;;;;;;;;;;5060208;28;20411;-78
2022/07/04 17:17:53;;;;;;;;;;;;;;;;;;5060990;28;19909;-77
2022/07/04 17:20:42;;;;;;;;;;;;;;;;;;5067710;28;19920;-79
2022/07/04 17:23:29;;;;;;;;;;;;;;;;;;5066413;28;20005;-78
2022/07/04 17:26:17;;;;;;;;;;;;;;;;;;5055570;28;19909;-79
2022/07/04 17:29:04;;;;;;;;;;;;;;;;;;5056050;28;19909;-78
2022/07/04 17:31:50;;;;;;;;;;;;;;;;;;5048568;28;20273;-77
2022/07/04 17:34:37;;;;;;;;;;;;;;;;;;5061861;28;19920;-80
2022/07/04 17:37:23;;;;;;;;;;;;;;;;;;5060029;28;19912;-78
2022/07/04 17:40:10;;;;;;;;;;;;;;;;;;5055408;28;19927;-76
2022/07/04 17:42:56;;;;;;;;;;;;;;;;;;5053454;28;19920;-77
2022/07/04 17:45:43;;;;;;;;;;;;;;;;;;5058825;28;19917;-78
2022/07/04 17:48:29;;;;;;;;;;;;;;;;;;5054320;28;19909;-78
2022/07/04 17:51:16;;;;;;;;;;;;;;;;;;5056249;28;19931;-78
2022/07/04 17:54:02;;;;;;;;;;;;;;;;;;5054203;28;19917;-80
2022/07/04 17:56:49;;;;;;;;;;;;;;;;;;5060999;28;19924;-82
2022/07/04 17:59:35;;;;;;;;;;;;;;;;;;5051623;28;19928;-80
2022/07/04 18:02:22;;;;;;;;;;;;;;;;;;5039357;28;19924;-80
2022/07/04 18:05:09;;;;;;;;;;;;;;;;;;5066902;28;20211;-80
2022/07/04 18:07:56;;;;;;;;;;;;;;;;;;5063393;28;19947;-80
2022/07/04 18:10:42;;;;;;;;;;;;;;;;;;5066582;28;19920;-81
2022/07/04 18:13:29;;;;;;;;;;;;;;;;;;5057208;28;19915;-79
2022/07/04 18:16:15;;;;;;;;;;;;;;;;;;5059541;28;19912;-79
2022/07/04 18:19:02;;;;;;;;;;;;;;;;;;5042630;28;20757;-79
2022/07/04 18:21:48;;;;;;;;;;;;;;;;;;5047457;28;19914;-79
2022/07/04 18:24:35;;;;;;;;;;;;;;;;;;5038850;28;19913;-80
2022/07/04 18:27:21;;;;;;;;;;;;;;;;;;5049300;28;20452;-80
2022/07/04 18:30:07;;;;;;;;;;;;;;;;;;5068247;28;19919;-80
2022/07/04 18:32:54;;;;;;;;;;;;;;;;;;5068051;28;19909;-80
2022/07/04 18:35:44;;;;;;;;;;;;;;;;;;5069566;28;19915;-80
2022/07/04 18:38:30;;;;;;;;;;;;;;;;;;5066394;28;19924;-79
2022/07/04 18:44:22;;;;;;;;;;;;;;;;;;5062628;28;19919;-80
2022/07/04 18:47:08;;;;;;;;;;;;;;;;;;5064660;28;19920;-80
2022/07/04 18:49:55;;;;;;;;;;;;;;;;;;5043908;28;19916;-87
2022/07/04 18:52:41;;;;;;;;;;;;;;;;;;5043843;28;19924;-79
2022/07/04 18:55:28;;;;;;;;;;;;;;;;;;5053443;28;20447;-80
2022/07/04 18:58:14;;;;;;;;;;;;;;;;;;5054410;28;20383;-81
2022/07/04 19:01:01;;;;;;;;;;;;;;;;;;5059693;28;19924;-80
2022/07/04 19:03:47;;;;;;;;;;;;;;;;;;5054176;28;19909;-79
2022/07/04 19:06:33;;;;;;;;;;;;;;;;;;5049354;28;20365;-80
2022/07/04 19:09:20;;;;;;;;;;;;;;;;;;5049225;28;19935;-80
2022/07/04 19:12:06;;;;;;;;;;;;;;;;;;5053691;28;20427;-81
2022/07/04 19:14:53;;;;;;;;;;;;;;;;;;5056236;28;19908;-82
2022/07/04 19:17:39;;;;;;;;;;;;;;;;;;5049177;28;20319;-83
2022/07/04 19:20:26;;;;;;;;;;;;;;;;;;5047101;28;19925;-87
2022/07/04 19:23:12;;;;;;;;;;;;;;;;;;5051707;28;19920;-87
2022/07/04 19:25:59;;;;;;;;;;;;;;;;;;5056323;28;19936;-85
2022/07/04 19:28:47;;;;;;;;;;;;;;;;;;5054116;28;19908;-84
2022/07/04 19:31:34;;;;;;;;;;;;;;;;;;5056746;28;19915;-86